Coopers, Louisiana
Current Conditions -  °F | °C
As of 11:58 PM on Friday 28 Nov 2014 (Local Time) from KPOE Reporting Station
Overcast Overcast  
Wind Chill: 55°   Ceiling: 400
Heat Index: 55°   Visibility: 9mi
Dew Point: 54°   Wind: 15mph
Humidity: 96%   Direction: 180°S
Pressure: 30.14"   Gusts: NA
Location:  31.2063°N, 93.1344°W
Report Text: KPOE 290558Z AUTO 18013KT 9SM OVC004 13/12 A3014 RMK AO2 SLP208 T01290122 10135 20122 401790016 57013
Loading
Personal Weather Stations






























Interactive Weather Map New forecast layout! Learn more

10-Day Weather Forecast

Advertisements
Track Severe Weather on mobile